createdAt,value
2022-12-16T00:00:35.540Z,148.40
2022-12-16T00:01:35.517Z,101.90
2022-12-16T00:02:35.549Z,108.50
2022-12-16T00:03:35.967Z,93.60
2022-12-16T00:04:35.442Z,162.70
2022-12-16T00:05:37.775Z,130.20
2022-12-16T00:06:35.419Z,124.10
2022-12-16T00:07:35.394Z,150.60
2022-12-16T00:08:35.383Z,195.30
2022-12-16T00:09:35.393Z,138.20
2022-12-16T00:10:35.359Z,130.20
2022-12-16T00:11:35.365Z,119.10
2022-12-16T00:12:35.364Z,176.10
2022-12-16T00:13:36.007Z,213.30
2022-12-16T00:14:35.352Z,166.80
2022-12-16T00:15:35.322Z,87.60
2022-12-16T00:16:35.467Z,141.20
2022-12-16T00:17:35.301Z,203.40
2022-12-16T00:18:35.297Z,150.20
2022-12-16T00:19:35.291Z,146.20
2022-12-16T00:20:35.272Z,224.60
2022-12-16T00:21:35.264Z,244.00
2022-12-16T00:22:35.252Z,238.60
2022-12-16T00:23:35.711Z,130.70
2022-12-16T00:24:35.248Z,121.60
2022-12-16T00:25:36.227Z,131.40
2022-12-16T00:26:35.258Z,182.80
2022-12-16T00:27:35.204Z,185.50
2022-12-16T00:28:35.193Z,208.20
2022-12-16T00:29:35.191Z,120.60
2022-12-16T00:30:35.174Z,103.80
2022-12-16T00:31:35.175Z,147.90
2022-12-16T00:32:35.161Z,94.30
2022-12-16T00:33:35.566Z,92.80
2022-12-16T00:34:35.188Z,154.80
2022-12-16T00:35:35.139Z,202.30
2022-12-16T00:36:35.123Z,179.10
2022-12-16T00:37:35.110Z,167.40
2022-12-16T00:38:35.095Z,125.60
2022-12-16T00:39:35.109Z,135.30
2022-12-16T00:40:35.087Z,158.10
2022-12-16T00:41:35.072Z,118.80
2022-12-16T00:42:35.114Z,131.70
2022-12-16T00:43:35.310Z,151.10
2022-12-16T00:44:35.064Z,101.20
2022-12-16T00:45:35.095Z,90.60
2022-12-16T00:46:35.030Z,95.20
2022-12-16T00:47:38.520Z,104.30
2022-12-16T00:48:36.014Z,93.60
2022-12-16T00:49:35.014Z,88.10
2022-12-16T00:50:34.986Z,94.20
2022-12-16T00:51:34.983Z,95.20
2022-12-16T00:52:34.979Z,80.40
2022-12-16T00:53:35.279Z,83.80
2022-12-16T00:54:34.972Z,94.30
2022-12-16T00:55:34.977Z,90.60
2022-12-16T00:56:34.941Z,92.40
2022-12-16T00:57:34.932Z,95.80
2022-12-16T00:58:34.914Z,94.00
2022-12-16T00:59:34.929Z,110.30
2022-12-16T01:00:34.940Z,87.90
2022-12-16T01:01:35.028Z,91.90
2022-12-16T01:02:35.030Z,91.80
2022-12-16T01:03:35.677Z,96.50
2022-12-16T01:04:34.885Z,110.80
2022-12-16T01:05:34.856Z,89.80
2022-12-16T01:06:34.844Z,90.40
2022-12-16T01:07:34.844Z,75.80
2022-12-16T01:08:34.821Z,80.90
2022-12-16T01:09:34.833Z,84.40
2022-12-16T01:10:34.793Z,85.90
2022-12-16T01:11:34.800Z,98.20
2022-12-16T01:12:34.801Z,80.20
2022-12-16T01:13:35.451Z,70.30
2022-12-16T01:14:34.803Z,90.70
2022-12-16T01:15:34.769Z,81.20
2022-12-16T01:16:34.803Z,77.70
2022-12-16T01:17:34.757Z,81.50
2022-12-16T01:18:34.752Z,83.10
2022-12-16T01:19:34.748Z,75.10
2022-12-16T01:20:34.727Z,80.80
2022-12-16T01:21:34.705Z,73.40
2022-12-16T01:22:35.699Z,70.40
2022-12-16T01:23:35.175Z,77.00
2022-12-16T01:24:34.711Z,73.10
2022-12-16T01:25:34.679Z,66.20
2022-12-16T01:26:34.689Z,59.90
2022-12-16T01:27:34.688Z,64.30
2022-12-16T01:28:34.660Z,74.80
2022-12-16T01:29:34.661Z,65.30
2022-12-16T01:30:34.632Z,63.50
2022-12-16T01:31:34.678Z,61.00
2022-12-16T01:32:34.627Z,68.00
2022-12-16T01:33:34.933Z,65.70
2022-12-16T01:34:34.629Z,61.70
2022-12-16T01:36:36.590Z,64.40
2022-12-16T01:37:34.584Z,58.60
2022-12-16T01:38:34.565Z,58.60
2022-12-16T01:39:34.578Z,60.20
2022-12-16T01:40:34.555Z,61.40
2022-12-16T01:41:34.547Z,58.40
2022-12-16T01:42:34.537Z,59.40
2022-12-16T01:43:35.067Z,54.00
2022-12-16T01:44:34.545Z,55.40
2022-12-16T01:45:35.575Z,55.60
2022-12-16T01:46:34.504Z,58.30
2022-12-16T01:47:34.497Z,58.00
2022-12-16T01:48:34.484Z,54.50
2022-12-16T01:49:34.509Z,58.70
2022-12-16T01:50:34.482Z,57.10
2022-12-16T01:51:34.465Z,53.00
2022-12-16T01:52:34.468Z,54.60
2022-12-16T01:53:34.837Z,65.90
2022-12-16T01:54:34.459Z,60.70
2022-12-16T01:55:34.426Z,65.90
2022-12-16T01:56:34.422Z,60.80
2022-12-16T01:57:34.418Z,56.80
2022-12-16T01:58:34.403Z,46.50
2022-12-16T01:59:34.422Z,59.20
2022-12-16T02:00:34.394Z,54.90
2022-12-16T02:01:34.622Z,55.80
2022-12-16T02:02:34.473Z,51.20
2022-12-16T02:03:34.863Z,56.80
2022-12-16T02:04:34.347Z,57.00
2022-12-16T02:05:34.365Z,52.30
2022-12-16T02:06:34.341Z,53.50
2022-12-16T02:07:34.336Z,55.60
2022-12-16T02:08:34.330Z,54.40
2022-12-16T02:09:34.315Z,50.30
2022-12-16T02:10:34.313Z,53.50
2022-12-16T02:11:34.321Z,51.60
2022-12-16T02:12:34.293Z,50.00
2022-12-16T02:13:34.879Z,52.70
2022-12-16T02:14:34.258Z,56.90
2022-12-16T02:15:34.281Z,48.60
2022-12-16T02:16:34.355Z,50.40
2022-12-16T02:17:34.260Z,53.80
2022-12-16T02:18:34.234Z,57.70
2022-12-16T02:19:34.245Z,53.30
2022-12-16T02:20:34.235Z,49.10
2022-12-16T02:21:34.212Z,51.90
2022-12-16T02:22:34.201Z,51.80
2022-12-16T02:23:34.683Z,47.00
2022-12-16T02:24:34.188Z,49.40
2022-12-16T02:25:34.195Z,54.50
2022-12-16T02:26:34.173Z,56.20
2022-12-16T02:27:34.162Z,55.80
2022-12-16T02:28:34.150Z,50.40
2022-12-16T02:29:34.150Z,54.70
2022-12-16T02:30:34.223Z,51.70
2022-12-16T02:31:34.130Z,51.40
2022-12-16T02:32:34.123Z,50.00
2022-12-16T02:33:34.711Z,58.50
2022-12-16T02:34:34.098Z,51.10
2022-12-16T02:35:34.103Z,54.90
2022-12-16T02:36:34.084Z,54.90
2022-12-16T02:37:34.085Z,49.60
2022-12-16T02:38:34.074Z,54.90
2022-12-16T02:39:34.059Z,55.50
2022-12-16T02:40:34.071Z,51.10
2022-12-16T02:41:34.042Z,47.80
2022-12-16T02:42:34.028Z,52.70
2022-12-16T02:43:34.690Z,49.40
2022-12-16T02:44:34.036Z,54.90
2022-12-16T02:45:34.122Z,50.00
2022-12-16T02:46:33.997Z,55.90
2022-12-16T02:47:34.012Z,47.80
2022-12-16T02:48:33.989Z,55.00
2022-12-16T02:49:33.988Z,45.20
2022-12-16T02:50:33.994Z,48.50
2022-12-16T02:51:33.956Z,49.80
2022-12-16T02:52:33.955Z,48.90
2022-12-16T02:53:34.475Z,46.30
2022-12-16T02:54:33.933Z,49.00
2022-12-16T02:55:33.947Z,47.10
2022-12-16T02:56:33.930Z,53.60
2022-12-16T02:57:33.902Z,51.60
2022-12-16T02:58:33.902Z,48.30
2022-12-16T02:59:33.901Z,50.70
2022-12-16T03:00:33.892Z,59.10
2022-12-16T03:01:33.998Z,57.70
2022-12-16T03:02:33.955Z,58.50
2022-12-16T03:03:34.287Z,55.20
2022-12-16T03:04:33.845Z,52.30
2022-12-16T03:05:33.851Z,62.10
2022-12-16T03:06:33.836Z,54.60
2022-12-16T03:07:33.827Z,51.10
2022-12-16T03:08:33.818Z,53.30
2022-12-16T03:09:33.811Z,53.50
2022-12-16T03:10:33.826Z,53.60
2022-12-16T03:11:33.789Z,53.60
2022-12-16T03:12:33.784Z,56.80
2022-12-16T03:13:34.222Z,57.10
2022-12-16T03:14:33.756Z,54.60
2022-12-16T03:15:33.773Z,51.40
2022-12-16T03:16:33.752Z,53.90
2022-12-16T03:17:33.741Z,56.70
2022-12-16T03:18:33.729Z,57.10
2022-12-16T03:19:33.723Z,50.20
2022-12-16T03:20:33.726Z,47.00
2022-12-16T03:21:33.705Z,50.00
2022-12-16T03:22:33.704Z,48.40
2022-12-16T03:23:34.111Z,54.50
2022-12-16T03:24:33.678Z,56.10
2022-12-16T03:25:33.686Z,52.60
2022-12-16T03:26:33.659Z,53.40
2022-12-16T03:27:33.649Z,57.90
2022-12-16T03:28:33.633Z,49.90
2022-12-16T03:29:33.635Z,53.40
2022-12-16T03:30:33.656Z,52.60
2022-12-16T03:31:33.621Z,51.00
2022-12-16T03:32:33.619Z,48.00
2022-12-16T03:33:34.124Z,49.40
2022-12-16T03:34:33.597Z,54.20
2022-12-16T03:35:33.603Z,53.10
2022-12-16T03:36:33.563Z,52.90
2022-12-16T03:37:33.573Z,52.60
2022-12-16T03:38:33.560Z,51.50
2022-12-16T03:39:33.552Z,49.90
2022-12-16T03:40:33.550Z,53.00
2022-12-16T03:41:33.538Z,57.60
2022-12-16T03:42:33.537Z,49.40
2022-12-16T03:43:33.969Z,52.40
2022-12-16T03:44:33.502Z,49.70
2022-12-16T03:45:33.520Z,54.70
2022-12-16T03:46:33.510Z,46.70
2022-12-16T03:47:33.493Z,47.30
2022-12-16T03:48:33.473Z,53.10
2022-12-16T03:49:33.464Z,46.60
2022-12-16T03:50:33.486Z,46.80
2022-12-16T03:51:33.461Z,49.30
2022-12-16T03:52:33.436Z,46.70
2022-12-16T03:53:33.787Z,50.70
2022-12-16T03:54:33.426Z,48.30
2022-12-16T03:55:33.432Z,54.10
2022-12-16T03:56:33.409Z,50.70
2022-12-16T03:57:33.398Z,47.00
2022-12-16T03:58:33.396Z,49.50
2022-12-16T03:59:33.386Z,44.90
2022-12-16T04:00:33.384Z,47.80
2022-12-16T04:01:33.394Z,42.90
2022-12-16T04:02:33.716Z,48.60
2022-12-16T04:03:33.700Z,49.90
2022-12-16T04:04:33.333Z,46.30
2022-12-16T04:05:33.337Z,52.80
2022-12-16T04:06:33.326Z,46.70
2022-12-16T04:07:33.305Z,45.70
2022-12-16T04:08:33.312Z,50.30
2022-12-16T04:09:33.293Z,41.20
2022-12-16T04:10:33.301Z,48.80
2022-12-16T04:11:33.272Z,51.30
2022-12-16T04:12:33.266Z,49.10
2022-12-16T04:13:33.710Z,48.10
2022-12-16T04:14:33.254Z,44.90
2022-12-16T04:15:33.333Z,55.60
2022-12-16T04:16:33.254Z,49.40
2022-12-16T04:17:33.251Z,41.80
2022-12-16T04:18:33.243Z,46.10
2022-12-16T04:19:33.241Z,43.60
2022-12-16T04:20:33.245Z,52.50
2022-12-16T04:21:33.216Z,43.60
2022-12-16T04:22:33.202Z,44.40
2022-12-16T04:23:33.605Z,47.30
2022-12-16T04:24:33.195Z,45.90
2022-12-16T04:25:33.207Z,41.60
2022-12-16T04:26:33.182Z,53.80
2022-12-16T04:27:33.163Z,50.20
2022-12-16T04:28:33.142Z,47.00
2022-12-16T04:29:33.152Z,44.10
2022-12-16T04:30:33.163Z,44.70
2022-12-16T04:31:33.182Z,45.80
2022-12-16T04:32:33.112Z,43.80
2022-12-16T04:33:33.631Z,50.40
2022-12-16T04:34:33.106Z,47.60
2022-12-16T04:35:33.117Z,45.20
2022-12-16T04:36:33.089Z,44.80
2022-12-16T04:37:33.114Z,49.50
2022-12-16T04:38:33.204Z,48.90
2022-12-16T04:39:33.108Z,46.60
2022-12-16T04:40:33.092Z,49.30
2022-12-16T04:41:33.046Z,47.30
2022-12-16T04:42:33.066Z,49.80
2022-12-16T04:43:33.373Z,44.20
2022-12-16T04:44:33.028Z,40.60
2022-12-16T04:45:33.040Z,46.10
2022-12-16T04:46:33.054Z,43.30
2022-12-16T04:47:33.003Z,45.60
2022-12-16T04:48:32.975Z,47.40
2022-12-16T04:49:32.977Z,50.10
2022-12-16T04:50:32.984Z,45.50
2022-12-16T04:51:32.966Z,44.10
2022-12-16T04:52:32.959Z,45.00
2022-12-16T04:53:33.355Z,46.50
2022-12-16T04:54:32.935Z,47.70
2022-12-16T04:55:32.939Z,46.00
2022-12-16T04:56:32.913Z,42.30
2022-12-16T04:57:32.911Z,42.30
2022-12-16T04:58:32.903Z,43.20
2022-12-16T04:59:32.887Z,37.30
2022-12-16T05:00:32.912Z,36.40
2022-12-16T05:01:32.965Z,38.80
2022-12-16T05:02:33.000Z,40.90
2022-12-16T05:03:33.284Z,42.00
2022-12-16T05:04:32.865Z,42.30
2022-12-16T05:05:32.865Z,41.10
2022-12-16T05:06:32.830Z,34.50
2022-12-16T05:07:38.022Z,41.50
2022-12-16T05:08:33.817Z,36.90
2022-12-16T05:09:32.801Z,40.50
2022-12-16T05:10:32.808Z,39.30
2022-12-16T05:11:32.811Z,41.20
2022-12-16T05:12:32.781Z,41.40
2022-12-16T05:13:33.231Z,39.40
2022-12-16T05:14:32.791Z,39.10
2022-12-16T05:15:32.754Z,39.30
2022-12-16T05:16:32.831Z,34.60
2022-12-16T05:17:32.736Z,39.50
2022-12-16T05:18:32.731Z,42.70
2022-12-16T05:19:32.726Z,38.10
2022-12-16T05:20:32.704Z,38.10
2022-12-16T05:21:32.726Z,39.10
2022-12-16T05:22:32.698Z,40.60
2022-12-16T05:23:33.034Z,42.60
2022-12-16T05:24:32.675Z,42.00
2022-12-16T05:25:32.676Z,39.80
2022-12-16T05:26:32.706Z,43.80
2022-12-16T05:27:32.670Z,35.20
2022-12-16T05:28:32.641Z,41.10
2022-12-16T05:29:32.641Z,40.80
2022-12-16T05:30:33.962Z,42.30
2022-12-16T05:31:33.720Z,40.90
2022-12-16T05:32:32.614Z,42.00
2022-12-16T05:33:32.974Z,41.80
2022-12-16T05:34:32.592Z,42.60
2022-12-16T05:35:32.594Z,36.80
2022-12-16T05:36:32.591Z,42.70
2022-12-16T05:37:32.693Z,38.70
2022-12-16T05:38:32.564Z,40.90
2022-12-16T05:39:32.560Z,41.40
2022-12-16T05:40:32.554Z,38.60
2022-12-16T05:41:32.564Z,42.60
2022-12-16T05:42:32.528Z,35.60
2022-12-16T05:43:32.958Z,37.30
2022-12-16T05:44:32.516Z,42.70
2022-12-16T05:45:32.506Z,35.90
2022-12-16T05:46:32.654Z,40.20
2022-12-16T05:47:32.555Z,42.60
2022-12-16T05:48:32.479Z,39.20
2022-12-16T05:49:32.474Z,42.00
2022-12-16T05:50:32.460Z,39.80
2022-12-16T05:51:34.167Z,43.30
2022-12-16T05:53:04.336Z,46.60
2022-12-16T05:53:32.845Z,38.80
2022-12-16T05:54:32.419Z,34.20
2022-12-16T05:55:34.321Z,36.40
2022-12-16T05:56:33.429Z,42.20
2022-12-16T05:57:32.403Z,35.30
2022-12-16T05:58:32.382Z,43.30
2022-12-16T05:59:32.384Z,41.10
2022-12-16T06:00:32.375Z,42.40
2022-12-16T06:01:32.505Z,36.80
2022-12-16T06:02:32.563Z,43.40
2022-12-16T06:03:32.775Z,45.10
2022-12-16T06:04:32.339Z,35.30
2022-12-16T06:05:32.332Z,43.40
2022-12-16T06:06:32.343Z,41.40
2022-12-16T06:07:32.314Z,39.60
2022-12-16T06:08:32.305Z,43.30
2022-12-16T06:09:32.295Z,38.20
2022-12-16T06:10:32.295Z,41.70
2022-12-16T06:11:33.298Z,42.90
2022-12-16T06:12:32.269Z,34.10
2022-12-16T06:13:32.624Z,37.70
2022-12-16T06:14:32.251Z,39.40
2022-12-16T06:15:32.242Z,35.10
2022-12-16T06:16:32.293Z,40.10
2022-12-16T06:17:32.230Z,35.60
2022-12-16T06:18:32.210Z,34.80
2022-12-16T06:19:32.213Z,33.10
2022-12-16T06:20:32.209Z,33.00
2022-12-16T06:21:32.217Z,33.50
2022-12-16T06:22:32.188Z,33.00
2022-12-16T06:23:32.372Z,36.00
2022-12-16T06:24:32.166Z,32.90
2022-12-16T06:25:32.171Z,37.80
2022-12-16T06:26:32.173Z,38.90
2022-12-16T06:27:32.142Z,34.30
2022-12-16T06:28:32.140Z,36.00
2022-12-16T06:29:32.134Z,36.50
2022-12-16T06:30:32.120Z,35.20
2022-12-16T06:31:32.246Z,33.30
2022-12-16T06:32:32.106Z,43.20
2022-12-16T06:33:32.516Z,45.70
2022-12-16T06:34:32.078Z,37.20
2022-12-16T06:35:32.076Z,43.10
2022-12-16T06:36:32.084Z,42.10
2022-12-16T06:37:32.059Z,44.10
2022-12-16T06:38:32.049Z,41.30
2022-12-16T06:39:32.043Z,39.80
2022-12-16T06:40:32.034Z,44.60
2022-12-16T06:41:32.051Z,37.10
2022-12-16T06:42:32.012Z,40.00
2022-12-16T06:43:32.475Z,36.20
2022-12-16T06:44:31.995Z,40.90
2022-12-16T06:45:34.813Z,36.50
2022-12-16T06:46:33.053Z,38.60
2022-12-16T06:47:31.986Z,41.20
2022-12-16T06:48:31.970Z,43.00
2022-12-16T06:49:31.963Z,39.70
2022-12-16T06:50:31.954Z,40.50
2022-12-16T06:51:31.957Z,43.50
2022-12-16T06:52:31.943Z,37.90
2022-12-16T06:53:32.120Z,44.20
2022-12-16T06:54:31.923Z,35.30
2022-12-16T06:55:31.911Z,37.10
2022-12-16T06:56:31.916Z,40.00
2022-12-16T06:57:31.899Z,34.90
2022-12-16T06:58:31.877Z,36.20
2022-12-16T06:59:31.871Z,36.70
2022-12-16T07:00:31.871Z,38.40
2022-12-16T07:01:32.068Z,34.20
2022-12-16T07:02:31.968Z,43.60
2022-12-16T07:03:35.731Z,37.40
2022-12-16T07:04:32.827Z,36.20
2022-12-16T07:05:31.828Z,37.70
2022-12-16T07:06:32.012Z,37.80
2022-12-16T07:07:31.809Z,36.50
2022-12-16T07:08:31.799Z,35.40
2022-12-16T07:09:31.790Z,36.60
2022-12-16T07:10:31.780Z,37.30
2022-12-16T07:11:31.786Z,39.00
2022-12-16T07:12:31.760Z,44.20
2022-12-16T07:13:32.121Z,39.30
2022-12-16T07:14:31.738Z,35.60
2022-12-16T07:15:31.725Z,37.80
2022-12-16T07:16:32.823Z,36.50
2022-12-16T07:17:31.724Z,38.00
2022-12-16T07:18:31.714Z,30.50
2022-12-16T07:19:31.706Z,39.70
2022-12-16T07:20:31.688Z,37.40
2022-12-16T07:21:31.707Z,39.20
2022-12-16T07:22:31.749Z,38.70
2022-12-16T07:23:32.008Z,38.00
2022-12-16T07:24:31.665Z,44.90
2022-12-16T07:25:31.647Z,42.10
2022-12-16T07:26:31.659Z,40.20
2022-12-16T07:27:31.647Z,43.70
2022-12-16T07:28:31.656Z,43.20
2022-12-16T07:29:31.611Z,41.90
2022-12-16T07:30:31.621Z,38.80
2022-12-16T07:31:31.664Z,36.80
2022-12-16T07:32:31.594Z,38.40
2022-12-16T07:33:32.037Z,37.20
2022-12-16T07:34:35.726Z,37.50
2022-12-16T07:35:32.567Z,36.10
2022-12-16T07:36:31.572Z,40.90
2022-12-16T07:37:31.543Z,43.00
2022-12-16T07:38:31.539Z,40.50
2022-12-16T07:39:31.537Z,42.20
2022-12-16T07:40:31.524Z,40.90
2022-12-16T07:41:31.531Z,42.70
2022-12-16T07:42:31.516Z,35.80
2022-12-16T07:43:31.807Z,33.40
2022-12-16T07:44:31.500Z,36.40
2022-12-16T07:45:31.550Z,35.20
2022-12-16T07:46:31.564Z,41.80
2022-12-16T07:47:31.472Z,42.90
2022-12-16T07:48:31.474Z,38.40
2022-12-16T07:49:31.448Z,41.20
2022-12-16T07:50:31.446Z,34.70
2022-12-16T07:51:31.454Z,46.20
2022-12-16T07:52:31.432Z,39.60
2022-12-16T07:53:31.748Z,44.40
2022-12-16T07:54:31.412Z,39.70
2022-12-16T07:55:31.403Z,41.30
2022-12-16T07:56:31.412Z,37.40
2022-12-16T07:57:31.373Z,39.70
2022-12-16T07:58:31.370Z,36.20
2022-12-16T07:59:31.369Z,35.30
2022-12-16T08:00:31.350Z,35.00
2022-12-16T08:01:31.506Z,39.10
2022-12-16T08:02:31.571Z,36.70
2022-12-16T08:03:31.814Z,39.30
2022-12-16T08:04:31.341Z,37.30
2022-12-16T08:05:31.306Z,34.00
2022-12-16T08:06:33.066Z,39.20
2022-12-16T08:07:31.300Z,32.90
2022-12-16T08:08:31.284Z,32.00
2022-12-16T08:09:31.279Z,39.30
2022-12-16T08:10:31.284Z,39.00
2022-12-16T08:11:31.261Z,44.50
2022-12-16T08:12:31.293Z,35.70
2022-12-16T08:13:31.240Z,40.20
2022-12-16T08:14:31.241Z,37.30
2022-12-16T08:15:31.236Z,36.70
2022-12-16T08:16:31.250Z,39.10
2022-12-16T08:17:31.221Z,45.40
2022-12-16T08:18:31.206Z,38.00
2022-12-16T08:19:31.192Z,39.30
2022-12-16T08:20:31.207Z,37.70
2022-12-16T08:21:31.166Z,39.60
2022-12-16T08:22:31.165Z,37.40
2022-12-16T08:23:31.526Z,41.00
2022-12-16T08:24:31.163Z,39.80
2022-12-16T08:25:31.160Z,44.20
2022-12-16T08:26:31.134Z,44.70
2022-12-16T08:27:31.128Z,41.80
2022-12-16T08:28:31.121Z,41.40
2022-12-16T08:29:46.406Z,40.40
2022-12-16T08:30:33.146Z,38.40
2022-12-16T08:31:31.092Z,39.50
2022-12-16T08:32:31.084Z,38.20
2022-12-16T08:33:31.118Z,38.10
2022-12-16T08:34:31.065Z,39.40
2022-12-16T08:35:31.082Z,46.10
2022-12-16T08:36:31.058Z,40.40
2022-12-16T08:37:31.020Z,44.70
2022-12-16T08:38:31.026Z,40.90
2022-12-16T08:39:31.016Z,41.70
2022-12-16T08:40:35.802Z,47.80
2022-12-16T08:41:32.996Z,43.20
2022-12-16T08:42:31.003Z,44.50
2022-12-16T08:43:31.378Z,40.40
2022-12-16T08:44:30.991Z,44.40
2022-12-16T08:45:30.961Z,45.50
2022-12-16T08:46:31.026Z,39.80
2022-12-16T08:47:30.956Z,43.90
2022-12-16T08:48:30.952Z,44.70
2022-12-16T08:49:30.925Z,38.90
2022-12-16T08:50:30.922Z,39.80
2022-12-16T08:51:30.911Z,43.40
2022-12-16T08:52:30.939Z,41.20
2022-12-16T08:53:31.140Z,44.40
2022-12-16T08:54:31.790Z,43.90
2022-12-16T08:55:31.873Z,39.40
2022-12-16T08:56:30.918Z,45.60
2022-12-16T08:57:30.860Z,37.90
2022-12-16T08:58:31.003Z,44.60
2022-12-16T08:59:30.834Z,39.80
2022-12-16T09:00:30.817Z,44.10
2022-12-16T09:01:30.949Z,39.10
2022-12-16T09:02:31.184Z,49.10
2022-12-16T09:03:31.182Z,40.30
2022-12-16T09:04:30.791Z,39.20
2022-12-16T09:05:30.775Z,46.90
2022-12-16T09:06:34.337Z,43.60
2022-12-16T09:07:31.773Z,46.40
2022-12-16T09:08:30.742Z,45.00
2022-12-16T09:09:30.739Z,45.00
2022-12-16T09:10:36.029Z,50.10
2022-12-16T09:11:31.718Z,41.90
2022-12-16T09:12:30.722Z,44.70
2022-12-16T09:13:31.160Z,44.80
2022-12-16T09:14:30.695Z,42.40
2022-12-16T09:15:30.762Z,49.10
2022-12-16T09:16:30.701Z,43.30
2022-12-16T09:17:30.685Z,46.80
2022-12-16T09:18:30.655Z,49.40
2022-12-16T09:19:30.646Z,47.20
2022-12-16T09:20:30.632Z,43.20
2022-12-16T09:21:33.362Z,43.80
2022-12-16T09:22:32.655Z,49.60
2022-12-16T09:23:31.109Z,51.70
2022-12-16T09:24:30.593Z,52.40
2022-12-16T09:25:30.592Z,45.00
2022-12-16T09:26:30.654Z,54.40
2022-12-16T09:27:30.596Z,48.80
2022-12-16T09:28:30.561Z,49.60
2022-12-16T09:29:30.559Z,53.80
2022-12-16T09:30:30.643Z,48.50
2022-12-16T09:31:31.235Z,48.70
2022-12-16T09:32:31.179Z,52.10
2022-12-16T09:33:31.008Z,50.80
2022-12-16T09:34:30.505Z,53.50
2022-12-16T09:35:30.505Z,51.10
2022-12-16T09:36:30.496Z,49.10
2022-12-16T09:37:30.508Z,49.70
2022-12-16T09:38:30.509Z,55.70
2022-12-16T09:39:30.476Z,47.90
2022-12-16T09:40:30.454Z,56.00
2022-12-16T09:41:30.455Z,48.60
2022-12-16T09:42:30.466Z,59.00
2022-12-16T09:43:30.753Z,51.70
2022-12-16T09:44:30.425Z,50.20
2022-12-16T09:45:30.418Z,54.10
2022-12-16T09:46:30.502Z,52.20
2022-12-16T09:47:30.419Z,52.70
2022-12-16T09:48:30.393Z,50.70
2022-12-16T09:49:30.374Z,52.30
2022-12-16T09:50:30.370Z,53.30
2022-12-16T09:51:30.367Z,52.20
2022-12-16T09:52:30.376Z,50.20
2022-12-16T09:53:31.043Z,45.90
2022-12-16T09:54:30.341Z,58.90
2022-12-16T09:55:30.329Z,49.00
2022-12-16T09:56:30.313Z,47.60
2022-12-16T09:57:30.327Z,53.50
2022-12-16T09:58:30.304Z,53.50
2022-12-16T09:59:30.285Z,46.40
2022-12-16T10:00:31.273Z,51.40
2022-12-16T10:01:30.450Z,44.20
2022-12-16T10:02:30.606Z,50.10
2022-12-16T10:03:30.550Z,46.40
2022-12-16T10:04:30.243Z,44.40
2022-12-16T10:05:30.245Z,41.50
2022-12-16T10:06:30.233Z,42.70
2022-12-16T10:07:30.238Z,42.90
2022-12-16T10:08:30.226Z,44.50
2022-12-16T10:09:30.197Z,42.60
2022-12-16T10:10:30.207Z,45.80
2022-12-16T10:11:30.189Z,43.80
2022-12-16T10:12:30.188Z,45.50
2022-12-16T10:13:30.471Z,49.30
2022-12-16T10:14:30.160Z,43.60
2022-12-16T10:15:30.189Z,42.60
2022-12-16T10:16:30.347Z,48.40
2022-12-16T10:17:30.154Z,42.70
2022-12-16T10:18:30.202Z,43.60
2022-12-16T10:19:30.117Z,46.20
2022-12-16T10:20:30.096Z,44.20
2022-12-16T10:21:30.111Z,47.60
2022-12-16T10:22:30.105Z,44.70
2022-12-16T10:23:30.348Z,50.00
2022-12-16T10:26:15.189Z,44.20
2022-12-16T10:27:15.224Z,44.50
2022-12-16T10:28:16.367Z,43.20
2022-12-16T10:29:16.305Z,44.70
2022-12-16T10:32:01.433Z,43.20
2022-12-16T10:33:01.465Z,46.10
2022-12-16T10:38:20.707Z,51.60
2022-12-16T10:39:20.695Z,48.90
2022-12-16T10:40:20.716Z,48.50
2022-12-16T10:41:20.701Z,52.80
2022-12-16T10:42:20.688Z,48.10
2022-12-16T10:43:22.589Z,61.70
2022-12-16T10:44:20.641Z,48.30
2022-12-16T10:45:21.758Z,50.70
2022-12-16T10:46:21.775Z,47.00
2022-12-16T10:47:21.759Z,50.20
2022-12-16T10:48:21.731Z,47.90
2022-12-16T10:49:21.754Z,43.20
2022-12-16T10:50:21.704Z,51.00
2022-12-16T10:51:21.690Z,55.60
2022-12-16T10:52:21.698Z,51.50
2022-12-16T10:53:21.690Z,52.80
2022-12-16T10:54:21.665Z,50.00
2022-12-16T10:55:21.650Z,51.80
2022-12-16T10:56:21.641Z,54.70
2022-12-16T10:57:21.632Z,55.20
2022-12-16T10:58:21.637Z,48.40
2022-12-16T10:59:21.611Z,54.20
2022-12-16T11:00:21.609Z,60.80
2022-12-16T11:01:21.789Z,52.60
2022-12-16T11:02:21.845Z,56.90
2022-12-16T11:03:22.769Z,61.30
2022-12-16T11:04:21.676Z,58.00
2022-12-16T11:05:21.557Z,51.10
2022-12-16T11:06:21.544Z,59.50
2022-12-16T11:07:21.539Z,66.10
2022-12-16T11:08:21.539Z,54.60
2022-12-16T11:09:21.529Z,55.60
2022-12-16T11:10:23.230Z,57.60
2022-12-16T11:11:22.501Z,54.40
2022-12-16T11:12:21.498Z,57.70
2022-12-16T11:13:21.481Z,55.90
2022-12-16T11:14:21.470Z,59.60
2022-12-16T11:15:29.193Z,56.30
2022-12-16T11:16:23.471Z,57.90
2022-12-16T11:17:21.446Z,57.30
2022-12-16T11:18:21.448Z,65.10
2022-12-16T11:19:21.416Z,59.00
2022-12-16T11:20:21.411Z,60.10
2022-12-16T11:21:21.398Z,62.60
2022-12-16T11:22:21.394Z,64.10
2022-12-16T11:23:21.401Z,61.40
2022-12-16T11:24:21.378Z,61.30
2022-12-16T11:25:21.353Z,67.10
2022-12-16T11:26:21.585Z,56.30
2022-12-16T11:27:21.343Z,53.70
2022-12-16T11:28:21.348Z,63.40
2022-12-16T11:29:21.317Z,62.00
2022-12-16T11:30:21.303Z,67.50
2022-12-16T11:31:21.351Z,55.50
2022-12-16T11:32:21.291Z,57.50
2022-12-16T11:33:21.303Z,60.60
2022-12-16T11:34:21.303Z,61.70
2022-12-16T11:35:21.264Z,55.30
2022-12-16T11:36:21.251Z,62.40
2022-12-16T11:37:21.424Z,54.50
2022-12-16T11:38:21.243Z,54.70
2022-12-16T11:39:21.226Z,57.20
2022-12-16T11:40:21.214Z,56.50
2022-12-16T11:41:21.201Z,66.60
2022-12-16T11:42:21.188Z,58.10
2022-12-16T11:43:21.205Z,58.30
2022-12-16T11:44:21.171Z,55.20
2022-12-16T11:45:21.153Z,52.80
2022-12-16T11:46:21.198Z,51.00
2022-12-16T11:47:21.142Z,53.50
2022-12-16T11:48:21.145Z,55.20
2022-12-16T11:49:25.307Z,60.30
2022-12-16T11:50:22.104Z,56.60
2022-12-16T11:51:21.100Z,53.60
2022-12-16T11:52:53.020Z,63.60
2022-12-16T11:53:21.081Z,63.10
2022-12-16T11:54:21.069Z,64.00
2022-12-16T11:55:35.773Z,60.10
2022-12-16T11:56:23.105Z,64.10
2022-12-16T11:57:21.051Z,61.50
2022-12-16T11:58:21.052Z,67.20
2022-12-16T11:59:21.024Z,60.00
2022-12-16T12:00:21.026Z,60.00
2022-12-16T12:01:21.053Z,63.00
2022-12-16T12:02:21.073Z,62.10
2022-12-16T12:03:21.153Z,63.80
2022-12-16T12:04:21.047Z,65.20
2022-12-16T12:05:21.018Z,64.00
2022-12-16T12:06:20.956Z,66.40
2022-12-16T12:07:21.037Z,66.80
2022-12-16T12:08:20.964Z,64.00
2022-12-16T12:09:20.928Z,65.50
2022-12-16T12:10:20.922Z,68.10
2022-12-16T12:11:20.953Z,60.70
2022-12-16T12:12:20.897Z,68.30
2022-12-16T12:13:20.903Z,62.10
2022-12-16T12:14:20.876Z,62.50
2022-12-16T12:15:20.874Z,66.90
2022-12-16T12:16:20.918Z,67.30
2022-12-16T12:17:20.853Z,58.70
2022-12-16T12:18:20.855Z,61.30
2022-12-16T12:19:20.823Z,62.90
2022-12-16T12:20:20.832Z,62.00
2022-12-16T12:21:20.833Z,65.60
2022-12-16T12:22:20.796Z,57.10
2022-12-16T12:23:20.798Z,61.50
2022-12-16T12:24:20.780Z,59.30
2022-12-16T12:25:20.787Z,54.70
2022-12-16T12:26:20.762Z,52.70
2022-12-16T12:27:20.754Z,49.20
2022-12-16T12:28:20.759Z,57.10
2022-12-16T12:29:20.746Z,49.30
2022-12-16T12:30:20.727Z,43.10
2022-12-16T12:31:20.786Z,43.30
2022-12-16T12:32:20.703Z,42.60
2022-12-16T12:33:20.762Z,44.20
2022-12-16T12:34:20.681Z,47.40
2022-12-16T12:35:20.722Z,36.80
2022-12-16T12:36:20.667Z,40.70
2022-12-16T12:37:20.656Z,31.50
2022-12-16T12:38:20.671Z,29.80
2022-12-16T12:39:20.649Z,24.60
2022-12-16T12:40:20.630Z,24.20
2022-12-16T12:41:20.621Z,26.20
2022-12-16T12:42:20.600Z,22.80
2022-12-16T12:43:20.642Z,21.60
2022-12-16T12:44:20.577Z,26.60
2022-12-16T12:45:20.579Z,22.50
2022-12-16T12:46:20.751Z,21.50
2022-12-16T12:47:20.561Z,19.30
2022-12-16T12:48:20.562Z,19.80
2022-12-16T12:49:20.529Z,20.10
2022-12-16T12:50:20.527Z,17.00
2022-12-16T12:51:20.518Z,21.30
2022-12-16T12:52:20.517Z,19.30
2022-12-16T12:53:20.543Z,20.10
2022-12-16T12:54:20.526Z,21.30
2022-12-16T12:55:20.502Z,22.50
2022-12-16T12:56:20.483Z,24.20
2022-12-16T12:57:20.461Z,22.20
2022-12-16T12:58:20.523Z,20.00
2022-12-16T12:59:20.449Z,21.40
2022-12-16T13:00:20.474Z,18.90